SALOAN 191100Z 33013G25KT 45KM FEW040CU SCT100AC RMK SCT
FCLOAN 191125Z 1912/1921 33010KT 9999 FEW050 SCT100 TEMPO 1912/1918 33015G28KT SCT040